.
WxDataArchive / Data Records for 2012-07-22
2012-07-21 July 2012 2012-07-23

Data Records for Sunday, 22 July 2012

Time	Temp	Chill	HIndex	Humid	Dewpt	 Wind 	HiWind	WindDir	Rain 	Barom 
-----	----	-----	------	-----	-----	------	------	-------	-----	----- 
00:00	73.0	73.0	73.0	70	62.6	0	0	---	0.00	30.030 
00:05	73.0	73.0	73.0	71	63.0	0	0	---	0.00	30.030 
00:10	72.8	72.8	72.8	70	62.4	0	0	---	0.00	30.030 
00:15	72.8	72.8	72.8	70	62.4	0	0	---	0.00	30.035 
00:20	72.8	72.8	72.8	69	62.0	0	0	---	0.00	30.035 
00:25	72.8	72.8	72.8	70	62.4	0	0	---	0.00	30.035 
00:30	72.8	72.8	72.8	70	62.4	0	0	---	0.00	30.037 
00:35	72.7	72.7	72.7	70	62.3	0	0	---	0.00	30.037 
00:40	72.7	72.7	72.7	70	62.3	0	0	---	0.00	30.037 
00:45	72.7	72.7	72.7	71	62.7	0	0	---	0.00	30.038 
00:50	72.7	72.7	72.7	73	63.5	0	0	---	0.00	30.038 
00:55	72.7	72.7	72.7	73	63.5	0	0	---	0.00	30.038 
01:00	72.5	72.5	72.5	73	63.3	0	0	---	0.00	30.039 
01:05	72.5	72.5	72.5	73	63.3	0	0	---	0.00	30.039 
01:10	72.3	72.3	72.3	73	63.1	0	0	---	0.00	30.039 
01:15	72.3	72.3	72.3	74	63.5	0	0	---	0.00	30.039 
01:20	72.3	72.3	72.3	74	63.5	0	0	---	0.00	30.039 
01:25	72.3	72.3	72.3	74	63.5	0	0	---	0.00	30.039 
01:30	72.3	72.3	72.3	75	63.9	0	0	---	0.00	30.036 
01:35	72.5	72.5	72.5	75	64.1	0	0	---	0.00	30.036 
01:40	72.5	72.5	72.5	75	64.1	0	0	---	0.00	30.036 
01:45	72.5	72.5	72.5	75	64.1	0	0	---	0.00	30.035 
01:50	72.5	72.5	72.5	74	63.7	0	0	---	0.00	30.035 
01:55	72.7	72.7	72.7	74	63.9	0	0	---	0.00	30.035 
02:00	72.7	72.7	72.7	74	63.9	0	0	---	0.00	30.035 
02:05	72.7	72.7	72.7	74	63.9	0	0	---	0.00	30.035 
02:10	72.7	72.7	72.7	73	63.5	0	0	---	0.00	30.035 
02:15	72.7	72.7	72.7	73	63.5	0	0	---	0.00	30.034 
02:20	72.7	72.7	72.7	74	63.9	0	0	---	0.00	30.034 
02:25	72.7	72.7	72.7	75	64.3	0	0	---	0.00	30.034 
02:30	72.7	72.7	72.7	75	64.3	0	0	---	0.00	30.032 
02:35	72.7	72.7	72.7	75	64.3	0	0	---	0.00	30.032 
02:40	72.7	72.7	72.7	75	64.3	0	0	---	0.00	30.032 
02:45	72.5	72.5	72.5	75	64.1	0	0	---	0.00	30.030 
02:50	72.5	72.5	72.5	76	64.5	0	0	---	0.00	30.030 
02:55	72.5	72.5	72.5	76	64.5	0	0	---	0.00	30.030 
03:00	72.5	72.5	72.5	76	64.5	0	0	---	0.00	30.030 
03:05	72.5	72.5	72.5	76	64.5	0	0	---	0.00	30.030 
03:10	72.5	72.5	72.5	75	64.1	0	1	292	0.00	30.030 
03:15	72.5	72.5	72.5	75	64.1	0	0	---	0.00	30.025 
03:20	72.5	72.5	72.5	74	63.7	0	1	292	0.00	30.025 
03:25	72.5	72.5	72.5	74	63.7	0	0	---	0.00	30.025 
03:30	72.5	72.5	72.5	73	63.3	0	0	---	0.00	30.027 
03:35	72.5	72.5	72.5	73	63.3	0	0	---	0.00	30.027 
03:40	72.5	72.5	72.5	73	63.3	0	1	292	0.00	30.027 
03:45	72.5	72.5	72.5	73	63.3	0	0	---	0.00	30.028 
03:50	72.5	72.5	72.5	73	63.3	0	0	---	0.00	30.028 
03:55	72.3	72.3	72.3	73	63.1	0	0	---	0.00	30.028 
04:00	72.3	72.3	72.3	73	63.1	0	0	---	0.00	30.028 
04:05	72.1	72.1	72.1	73	63.0	0	0	---	0.00	30.028 
04:10	72.0	72.0	72.0	74	63.2	0	0	---	0.00	30.028 
04:15	71.8	71.8	71.8	74	63.1	0	0	---	0.00	30.032 
04:20	71.8	71.8	71.8	74	63.1	0	0	---	0.00	30.032 
04:25	71.6	71.6	71.6	75	63.2	0	0	---	0.00	30.032 
04:30	71.6	71.6	71.6	75	63.2	0	0	---	0.00	30.035 
04:35	71.5	71.5	71.5	75	63.1	0	0	---	0.00	30.035 
04:40	71.3	71.3	71.3	76	63.3	0	0	---	0.00	30.035 
04:45	71.3	71.3	71.3	76	63.3	0	0	---	0.00	30.042 
04:50	71.1	71.1	71.1	76	63.1	0	0	---	0.00	30.042 
04:55	70.9	70.9	70.9	76	62.9	0	0	---	0.00	30.042 
05:00	70.9	70.9	70.9	76	62.9	0	0	---	0.00	30.052 
05:05	70.8	70.8	70.8	76	62.8	0	0	---	0.00	30.052 
05:10	70.6	70.6	70.6	76	62.7	0	0	---	0.00	30.052 
05:15	70.6	70.6	70.6	76	62.7	0	0	---	0.00	30.053 
05:20	70.4	70.4	70.4	76	62.5	0	0	---	0.00	30.053 
05:25	70.3	70.3	70.3	76	62.4	0	0	---	0.00	30.053 
05:30	70.1	70.1	70.1	76	62.2	0	0	---	0.00	30.055 
05:35	70.1	70.1	70.1	76	62.2	0	0	---	0.00	30.055 
05:40	69.9	69.9	69.9	76	62.0	0	0	---	0.00	30.055 
05:45	69.8	69.8	69.8	76	61.9	0	0	---	0.00	30.059 
05:50	69.6	69.6	69.6	77	62.1	0	0	---	0.00	30.059 
05:55	69.4	69.4	69.4	77	61.9	0	0	---	0.00	30.059 
06:00	69.3	69.3	69.3	77	61.8	0	0	---	0.00	30.067 
06:05	69.1	69.1	69.1	77	61.6	0	0	---	0.00	30.067 
06:10	68.9	68.9	68.9	78	61.7	0	0	---	0.00	30.067 
06:15	68.8	68.8	68.8	79	62.0	0	0	---	0.00	30.074 
06:20	68.6	68.6	68.6	79	61.8	0	0	---	0.00	30.074 
06:25	68.4	68.4	68.4	80	62.0	0	0	---	0.00	30.074 
06:30	68.4	68.4	68.4	81	62.3	0	0	---	0.00	30.081 
06:35	68.3	68.3	68.3	81	62.2	0	0	---	0.00	30.081 
06:40	68.3	68.3	68.3	82	62.6	0	0	---	0.00	30.081 
06:45	68.1	68.1	68.1	82	62.4	0	0	---	0.00	30.082 
06:50	68.1	68.1	68.1	82	62.4	0	0	---	0.00	30.082 
06:55	67.9	67.9	67.9	82	62.2	0	0	---	0.00	30.082 
07:00	67.9	67.9	67.9	83	62.5	0	0	---	0.00	30.085 
07:05	67.9	67.9	67.9	83	62.5	0	0	---	0.00	30.085 
07:10	68.1	68.1	68.1	83	62.7	0	0	---	0.00	30.085 
07:15	68.3	68.3	68.3	83	62.9	0	0	---	0.00	30.088 
07:20	68.4	68.4	68.4	83	63.0	0	0	---	0.00	30.088 
07:25	68.8	68.8	68.8	82	63.1	0	0	---	0.00	30.088 
07:30	69.3	69.3	69.3	81	63.2	0	0	---	0.00	30.085 
07:35	70.1	70.1	70.1	79	63.3	0	0	---	0.00	30.085 
07:40	70.9	70.9	70.9	77	63.3	0	0	---	0.00	30.085 
07:45	71.8	71.8	71.8	76	63.8	0	0	---	0.00	30.082 
07:50	72.7	72.7	72.7	74	63.9	0	1	292	0.00	30.082 
07:55	73.0	73.0	73.0	72	63.4	0	2	292	0.00	30.082 
08:00	73.2	73.2	73.2	71	63.2	0	3	292	0.00	30.080 
08:05	73.5	73.5	73.5	69	62.7	0	2	292	0.00	30.080 
08:10	74.0	74.0	74.0	68	62.8	0	2	292	0.00	30.080 
08:15	74.4	74.4	74.4	67	62.7	1	3	292	0.00	30.084 
08:20	74.9	74.9	74.9	65	62.3	1	2	292	0.00	30.084 
08:25	75.3	75.3	77.4	64	62.3	1	2	292	0.00	30.084 
08:30	75.8	75.8	77.8	63	62.3	1	2	292	0.00	30.088 
08:35	76.1	76.1	78.1	61	61.7	1	2	292	0.00	30.088 
08:40	76.5	76.5	78.4	59	61.1	1	3	292	0.00	30.088 
08:45	76.8	76.8	78.6	58	60.9	1	3	292	0.00	30.091 
08:50	77.0	77.0	78.8	58	61.1	2	3	292	0.00	30.091 
08:55	77.4	77.4	79.1	57	61.0	1	3	292	0.00	30.091 
09:00	77.7	77.7	79.3	57	61.2	2	4	292	0.00	30.089 
09:05	77.9	77.9	79.4	55	60.4	2	4	292	0.00	30.089 
09:10	78.3	78.3	79.7	54	60.3	2	4	292	0.00	30.089 
09:15	78.6	78.6	80.0	55	61.1	1	3	292	0.00	30.100 
09:20	79.2	79.2	80.4	54	61.1	1	3	292	0.00	30.100 
09:25	79.6	79.6	80.7	53	60.9	1	3	292	0.00	30.100 
09:30	79.9	79.9	80.9	52	60.7	1	2	292	0.00	30.091 
09:35	80.5	80.5	81.4	51	60.7	1	3	292	0.00	30.091 
09:40	80.7	80.7	81.4	50	60.3	2	4	292	0.00	30.091 
09:45	80.7	80.7	81.4	50	60.3	1	4	315	0.00	30.089 
09:50	81.1	81.1	81.8	50	60.7	1	4	315	0.00	30.089 
09:55	81.4	81.4	82.1	50	60.9	1	3	292	0.00	30.089 
10:00	81.8	81.8	82.3	48	60.2	1	3	292	0.00	30.086 
10:05	82.2	82.2	82.7	48	60.5	1	3	292	0.00	30.086 
10:10	82.6	82.6	83.0	47	60.3	2	3	292	0.00	30.086 
10:15	82.8	82.8	83.2	47	60.5	1	4	270	0.00	30.086 
10:20	83.0	83.0	83.4	47	60.7	2	5	270	0.00	30.086 
10:25	83.4	83.4	84.2	49	62.2	0	2	270	0.00	30.086 
10:30	83.8	83.8	84.3	47	61.4	1	2	270	0.00	30.086 
10:35	83.8	83.8	84.3	47	61.4	2	5	270	0.00	30.086 
10:40	83.8	83.8	84.3	47	61.4	2	4	270	0.00	30.086 
10:45	83.8	83.8	84.3	47	61.4	1	3	270	0.00	30.089 
10:50	84.0	84.0	84.5	47	61.6	1	3	270	0.00	30.089 
10:55	84.3	84.3	84.9	47	61.8	1	4	270	0.00	30.089 
11:00	84.7	84.7	85.0	45	61.0	2	4	248	0.00	30.096 
11:05	84.7	84.7	84.7	44	60.3	2	4	248	0.00	30.096 
11:10	85.1	85.1	85.4	45	61.3	2	4	248	0.00	30.096 
11:15	85.5	85.5	85.7	44	61.1	2	4	248	0.00	30.098 
11:20	86.1	86.1	86.7	45	62.2	1	4	248	0.00	30.098 
11:25	86.3	86.3	86.2	42	60.5	3	5	270	0.00	30.098 
11:30	86.3	86.3	86.5	43	61.1	2	4	292	0.00	30.098 
11:35	86.1	86.1	86.2	43	61.0	2	5	315	0.00	30.098 
11:40	86.1	86.1	86.2	43	61.0	2	4	270	0.00	30.098 
11:45	86.3	86.3	86.5	43	61.1	2	4	292	0.00	30.094 
11:50	86.1	86.1	86.0	42	60.3	2	5	292	0.00	30.094 
11:55	86.1	86.1	86.0	42	60.3	2	4	315	0.00	30.094 
12:00	86.5	86.5	86.5	42	60.6	2	4	270	0.00	30.088 
12:05	87.4	87.4	87.6	42	61.5	1	3	292	0.00	30.088 
12:10	87.8	87.8	88.2	42	61.8	1	4	248	0.00	30.088 
12:15	87.8	87.8	87.9	41	61.1	2	4	248	0.00	30.085 
12:20	87.8	87.8	87.4	39	59.7	2	4	248	0.00	30.085 
12:25	88.2	88.2	88.4	41	61.5	1	3	248	0.00	30.085 
12:30	88.6	88.6	88.7	40	61.1	1	4	315	0.00	30.083 
12:35	88.6	88.6	88.4	39	60.4	2	4	292	0.00	30.083 
12:40	88.6	88.6	88.4	39	60.4	2	4	292	0.00	30.083 
12:45	88.4	88.4	88.2	39	60.3	2	4	270	0.00	30.083 
12:50	88.4	88.4	88.2	39	60.3	2	4	292	0.00	30.083 
12:55	88.2	88.2	88.2	40	60.8	2	4	270	0.00	30.083 
13:00	88.2	88.2	87.6	38	59.3	2	4	270	0.00	30.081 
13:05	88.4	88.4	88.4	40	61.0	1	3	270	0.00	30.081 
13:10	89.0	89.0	89.0	39	60.8	2	4	270	0.00	30.081 
13:15	89.3	89.3	89.7	40	61.8	2	4	248	0.00	30.077 
13:20	89.0	89.0	89.0	39	60.8	3	5	292	0.00	30.077 
13:25	89.5	89.5	89.6	39	61.2	2	5	292	0.00	30.077 
13:30	89.5	89.5	89.3	38	60.5	2	6	270	0.00	30.071 
13:35	89.7	89.7	89.9	39	61.4	2	3	292	0.00	30.071 
13:40	90.1	90.1	90.2	38	61.0	2	4	270	0.00	30.071 
13:45	90.1	90.1	89.6	36	59.5	2	6	270	0.00	30.071 
13:50	89.9	89.9	89.3	36	59.3	2	5	315	0.00	30.071 
13:55	89.9	89.9	89.6	37	60.1	2	5	270	0.00	30.071 
14:00	90.1	90.1	90.5	39	61.8	3	7	292	0.00	30.068 
14:05	90.3	90.3	90.5	38	61.2	2	4	270	0.00	30.068 
14:10	90.3	90.3	90.5	38	61.2	2	5	270	0.00	30.068 
14:15	90.1	90.1	90.2	38	61.0	3	7	270	0.00	30.063 
14:20	90.3	90.3	90.5	38	61.2	2	4	292	0.00	30.063 
14:25	90.5	90.5	90.4	37	60.6	2	4	292	0.00	30.063 
14:30	91.2	91.2	91.8	38	62.0	1	2	292	0.00	30.059 
14:35	91.2	91.2	91.8	38	62.0	2	4	292	0.00	30.059 
14:40	91.2	91.2	91.8	38	62.0	1	3	292	0.00	30.059 
14:45	90.7	90.7	91.0	38	61.6	2	5	292	0.00	30.053 
14:50	90.1	90.1	90.2	38	61.0	2	4	270	0.00	30.053 
14:55	90.1	90.1	90.5	39	61.8	2	4	292	0.00	30.053 
15:00	90.1	90.1	90.5	39	61.8	2	4	292	0.00	30.052 
15:05	90.5	90.5	90.7	38	61.4	2	4	270	0.00	30.052 
15:10	91.2	91.2	91.8	38	62.0	1	3	315	0.00	30.052 
15:15	91.8	91.8	92.3	37	61.8	1	3	315	0.00	30.047 
15:20	92.3	92.3	93.4	38	63.0	1	4	270	0.00	30.047 
15:25	92.3	92.3	93.8	39	63.7	2	4	270	0.00	30.047 
15:30	92.3	92.3	93.1	37	62.2	2	4	292	0.00	30.044 
15:35	92.3	92.3	92.7	36	61.4	2	4	270	0.00	30.044 
15:40	91.6	91.6	92.4	38	62.3	1	4	270	0.00	30.044 
15:45	90.5	90.5	90.7	38	61.4	2	4	270	0.00	30.041 
15:50	89.9	89.9	91.2	42	63.7	1	3	270	0.00	30.041 
15:55	89.3	89.3	90.0	41	62.5	2	5	270	0.00	30.041 
16:00	88.8	88.8	89.6	42	62.7	2	4	270	0.00	30.044 
16:05	88.6	88.6	89.0	41	61.8	2	4	270	0.00	30.044 
16:10	88.6	88.6	89.3	42	62.5	1	2	248	0.00	30.044 
16:15	88.8	88.8	89.9	43	63.4	1	6	270	0.00	30.035 
16:20	88.8	88.8	89.3	41	62.0	2	5	270	0.00	30.035 
16:25	88.6	88.6	88.7	40	61.1	2	5	270	0.00	30.035 
16:30	88.4	88.4	89.0	42	62.3	1	3	270	0.00	30.035 
16:35	88.2	88.2	88.7	42	62.2	2	4	270	0.00	30.035 
16:40	87.8	87.8	88.2	42	61.8	1	3	270	0.00	30.035 
16:45	87.6	87.6	88.2	43	62.3	2	3	270	0.00	30.034 
16:50	87.4	87.4	87.9	43	62.1	1	3	270	0.00	30.034 
16:55	87.4	87.4	87.9	43	62.1	1	4	270	0.00	30.034 
17:00	87.4	87.4	88.2	44	62.8	1	4	270	0.00	30.036 
17:05	87.2	87.2	87.9	44	62.6	1	3	270	0.00	30.036 
17:10	87.2	87.2	87.9	44	62.6	1	2	270	0.00	30.036 
17:15	87.2	87.2	87.6	43	61.9	1	3	270	0.00	30.034 
17:20	87.0	87.0	87.6	44	62.4	1	2	270	0.00	30.034 
17:25	86.7	86.7	87.5	45	62.8	1	2	270	0.00	30.034 
17:30	86.5	86.5	87.0	44	62.0	0	2	270	0.00	30.025 
17:35	86.5	86.5	87.2	45	62.6	0	1	270	0.00	30.025 
17:40	86.5	86.5	87.5	46	63.2	1	2	270	0.00	30.025 
17:45	86.3	86.3	87.2	46	63.0	0	2	270	0.00	30.022 
17:50	86.3	86.3	87.2	46	63.0	0	2	270	0.00	30.022 
17:55	86.1	86.1	87.2	47	63.5	0	1	270	0.00	30.022 
18:00	86.1	86.1	87.2	47	63.5	0	3	270	0.00	30.023 
18:05	86.1	86.1	87.2	47	63.5	0	1	270	0.00	30.023 
18:10	86.1	86.1	87.5	48	64.1	0	2	270	0.00	30.023 
18:15	85.9	85.9	87.5	49	64.5	0	2	270	0.00	30.026 
18:20	85.9	85.9	87.5	49	64.5	1	3	270	0.00	30.026 
18:25	85.7	85.7	87.2	49	64.3	1	2	270	0.00	30.026 
18:30	85.7	85.7	87.4	50	64.9	1	3	270	0.00	30.029 
18:35	85.7	85.7	87.2	49	64.3	1	3	270	0.00	30.029 
18:40	85.7	85.7	87.4	50	64.9	0	1	270	0.00	30.029 
18:45	85.7	85.7	87.4	50	64.9	0	2	270	0.00	30.027 
18:50	85.5	85.5	87.2	50	64.7	0	2	270	0.00	30.027 
18:55	85.3	85.3	86.9	50	64.5	0	2	270	0.00	30.027 
19:00	85.3	85.3	86.9	50	64.5	0	1	270	0.00	30.027 
19:05	85.3	85.3	86.9	50	64.5	0	2	270	0.00	30.027 
19:10	85.1	85.1	86.6	50	64.3	0	2	270	0.00	30.027 
19:15	84.9	84.9	86.3	50	64.2	0	2	270	0.00	30.019 
19:20	84.9	84.9	86.3	50	64.2	0	2	270	0.00	30.019 
19:25	84.9	84.9	86.3	50	64.2	0	1	270	0.00	30.019 
19:30	84.7	84.7	86.0	50	64.0	0	1	270	0.00	30.019 
19:35	84.7	84.7	86.3	51	64.5	0	1	270	0.00	30.019 
19:40	84.7	84.7	86.0	50	64.0	0	2	270	0.00	30.019 
19:45	84.5	84.5	85.8	50	63.8	0	1	270	0.00	30.021 
19:50	84.5	84.5	85.8	50	63.8	0	1	270	0.00	30.021 
19:55	84.5	84.5	85.8	50	63.8	0	1	270	0.00	30.021 
20:00	84.5	84.5	86.0	51	64.4	0	2	270	0.00	30.018 
20:05	84.3	84.3	85.7	51	64.2	0	1	270	0.00	30.018 
20:10	84.3	84.3	85.7	51	64.2	0	1	270	0.00	30.018 
20:15	84.3	84.3	86.0	52	64.7	0	0	---	0.00	30.016 
20:20	84.1	84.1	85.7	52	64.5	0	0	---	0.00	30.016 
20:25	84.0	84.0	85.6	52	64.4	0	1	270	0.00	30.016 
20:30	83.8	83.8	85.5	53	64.8	0	2	270	0.00	30.016 
20:35	83.8	83.8	85.3	52	64.3	0	1	270	0.00	30.016 
20:40	83.8	83.8	85.3	52	64.3	0	1	270	0.00	30.016 
20:45	83.6	83.6	85.2	53	64.6	0	1	270	0.00	30.018 
20:50	83.6	83.6	85.2	53	64.6	0	0	---	0.00	30.018 
20:55	83.4	83.4	85.2	54	65.0	0	0	---	0.00	30.018 
21:00	83.2	83.2	85.1	55	65.3	0	0	---	0.00	30.027 
21:05	83.0	83.0	84.9	55	65.1	0	0	---	0.00	30.027 
21:10	82.8	82.8	84.8	56	65.5	0	1	270	0.00	30.027 
21:15	82.6	82.6	84.7	57	65.8	0	1	270	0.00	30.029 
21:20	82.6	82.6	84.9	58	66.3	0	1	270	0.00	30.029 
21:25	82.4	82.4	84.6	58	66.1	0	1	270	0.00	30.029 
21:30	82.4	82.4	84.6	58	66.1	0	0	---	0.00	30.030 
21:35	82.2	82.2	84.5	59	66.4	0	0	---	0.00	30.030 
21:40	82.0	82.0	84.4	60	66.7	0	0	---	0.00	30.030 
21:45	81.8	81.8	84.3	61	67.0	0	0	---	0.00	30.030 
21:50	81.6	81.6	84.0	61	66.8	0	0	---	0.00	30.030 
21:55	81.4	81.4	83.9	62	67.1	0	0	---	0.00	30.030 
22:00	81.2	81.2	83.6	62	66.9	0	0	---	0.00	30.035 
22:05	81.1	81.1	83.5	62	66.8	0	0	---	0.00	30.035 
22:10	81.1	81.1	83.6	63	67.3	0	0	---	0.00	30.035 
22:15	81.1	81.1	83.6	63	67.3	0	0	---	0.00	30.033 
22:20	80.9	80.9	83.5	64	67.6	0	0	---	0.00	30.033 
22:25	80.7	80.7	83.2	64	67.4	0	0	---	0.00	30.033 
22:30	80.5	80.5	82.9	64	67.2	0	0	---	0.00	30.038 
22:35	80.5	80.5	83.1	65	67.6	0	0	---	0.00	30.038 
22:40	80.3	80.3	82.8	65	67.4	0	0	---	0.00	30.038 
22:45	80.1	80.1	82.6	66	67.7	0	0	---	0.00	30.035 
22:50	79.9	79.9	82.3	66	67.5	0	0	---	0.00	30.035 
22:55	79.9	79.9	82.5	67	67.9	0	0	---	0.00	30.035 
23:00	79.8	79.8	82.3	67	67.8	0	0	---	0.00	30.033 
23:05	79.8	79.8	82.4	68	68.3	0	0	---	0.00	30.033 
23:10	79.6	79.6	82.2	69	68.5	0	0	---	0.00	30.033 
23:15	79.6	79.6	82.2	69	68.5	0	0	---	0.00	30.027 
23:20	79.6	79.6	82.2	69	68.5	0	0	---	0.00	30.027 
23:25	79.4	79.4	81.9	69	68.3	0	0	---	0.00	30.027 
23:30	79.4	79.4	81.9	69	68.3	0	0	---	0.00	30.028 
23:35	79.4	79.4	81.9	69	68.3	0	0	---	0.00	30.028 
23:40	79.4	79.4	82.0	70	68.7	0	0	---	0.00	30.028 
23:45	79.4	79.4	82.0	70	68.7	0	0	---	0.00	30.026 
23:50	79.2	79.2	81.7	70	68.5	0	0	---	0.00	30.026 
23:55	79.2	79.2	81.7	70	68.5	0	0	---	0.00	30.026 

CoCoRaHS
IN-AL-39
A2 Web Hosting
Creative Commons License
GoDaddy
search engine by freefind advanced

loaded 2018-11-19 11:46:11 • last modified 2010-11-18 10:43:29
Privacy PolicyDisclaimer
• wx.awcolley.com is powered by PmWiki v.2002016 •
• all content (unless otherwise noted) © 2018 A W Colley